.
WxDataArchive / Data Records for 2015-08-01
2015-07-31 August 2015 2015-08-02

Data Records for Saturday, 01 August 2015

Time	Temp	Chill	HIndex	Humid	Dewpt	 Wind 	HiWind	WindDir	Rain 	Barom
-----	----	-----	------	-----	-----	------	------	-------	-----	-----
00:00	67.1	67.1	67.1	65	54.9	0	0	---	0.00	29.901 
00:05	66.8	66.8	66.8	66	55.1	0	0	---	0.00	29.901 
00:10	66.4	66.4	66.4	66	54.7	0	0	---	0.00	29.901 
00:15	66.0	66.0	66.0	68	55.1	0	0	---	0.00	29.908 
00:20	65.6	65.6	65.6	69	55.1	0	0	---	0.00	29.908 
00:25	65.3	65.3	65.3	70	55.3	0	0	---	0.00	29.908 
00:30	65.2	65.2	65.2	71	55.6	0	0	---	0.00	29.908 
00:35	64.8	64.8	64.8	72	55.6	0	0	---	0.00	29.908 
00:40	64.7	64.7	64.7	72	55.5	0	0	---	0.00	29.908 
00:45	64.5	64.5	64.5	73	55.6	0	0	---	0.00	29.908 
00:50	64.3	64.3	64.3	73	55.5	0	0	---	0.00	29.908 
00:55	64.3	64.3	64.3	74	55.8	0	0	---	0.00	29.908 
01:00	64.3	64.3	64.3	74	55.8	0	0	---	0.00	29.911 
01:05	64.2	64.2	64.2	74	55.7	0	0	---	0.00	29.911 
01:10	64.2	64.2	64.2	74	55.7	0	0	---	0.00	29.911 
01:15	64.0	64.0	64.0	74	55.5	0	0	---	0.00	29.914 
01:20	64.0	64.0	64.0	75	55.9	0	0	---	0.00	29.914 
01:25	63.9	63.9	63.9	75	55.8	0	0	---	0.00	29.914 
01:30	63.9	63.9	63.9	76	56.2	0	0	---	0.00	29.911 
01:35	63.7	63.7	63.7	77	56.3	0	0	---	0.00	29.911 
01:40	63.7	63.7	63.7	77	56.3	0	0	---	0.00	29.911 
01:45	63.5	63.5	63.5	77	56.2	0	0	---	0.00	29.913 
01:50	63.4	63.4	63.4	77	56.1	0	0	---	0.00	29.913 
01:55	63.4	63.4	63.4	78	56.4	0	0	---	0.00	29.913 
02:00	63.2	63.2	63.2	78	56.2	0	0	---	0.00	29.913 
02:05	63.1	63.1	63.1	78	56.1	0	0	---	0.00	29.913 
02:10	63.1	63.1	63.1	78	56.1	0	0	---	0.00	29.913 
02:15	62.9	62.9	62.9	79	56.3	0	0	---	0.00	29.915 
02:20	62.7	62.7	62.7	78	55.7	0	0	---	0.00	29.915 
02:25	62.7	62.7	62.7	78	55.7	0	0	---	0.00	29.915 
02:30	62.7	62.7	62.7	78	55.7	0	0	---	0.00	29.912 
02:35	62.7	62.7	62.7	79	56.1	0	0	---	0.00	29.912 
02:40	62.6	62.6	62.6	79	56.0	0	0	---	0.00	29.912 
02:45	62.6	62.6	62.6	79	56.0	0	0	---	0.00	29.911 
02:50	62.6	62.6	62.6	79	56.0	0	0	---	0.00	29.911 
02:55	62.6	62.6	62.6	79	56.0	0	0	---	0.00	29.911 
03:00	62.4	62.4	62.4	79	55.8	0	0	---	0.00	29.910 
03:05	62.4	62.4	62.4	79	55.8	0	0	---	0.00	29.910 
03:10	62.6	62.6	62.6	79	56.0	0	0	---	0.00	29.910 
03:15	62.7	62.7	62.7	78	55.7	0	0	---	0.00	29.915 
03:20	62.9	62.9	62.9	78	55.9	0	0	---	0.00	29.915 
03:25	63.1	63.1	63.1	77	55.8	0	0	---	0.00	29.915 
03:30	63.1	63.1	63.1	77	55.8	0	0	---	0.00	29.913 
03:35	63.1	63.1	63.1	77	55.8	0	0	---	0.00	29.913 
03:40	63.1	63.1	63.1	77	55.8	0	0	---	0.00	29.913 
03:45	63.1	63.1	63.1	77	55.8	0	0	---	0.00	29.912 
03:50	62.9	62.9	62.9	77	55.6	0	0	---	0.00	29.912 
03:55	62.9	62.9	62.9	77	55.6	0	0	---	0.00	29.912 
04:00	62.7	62.7	62.7	77	55.4	0	0	---	0.00	29.911 
04:05	62.6	62.6	62.6	77	55.3	0	0	---	0.00	29.911 
04:10	62.6	62.6	62.6	77	55.3	0	0	---	0.00	29.911 
04:15	62.4	62.4	62.4	77	55.1	0	0	---	0.00	29.907 
04:20	62.4	62.4	62.4	77	55.1	0	0	---	0.00	29.907 
04:25	62.3	62.3	62.3	77	55.0	0	0	---	0.00	29.907 
04:30	62.1	62.1	62.1	78	55.2	0	0	---	0.00	29.906 
04:35	62.1	62.1	62.1	78	55.2	0	0	---	0.00	29.906 
04:40	62.0	62.0	62.0	79	55.4	0	0	---	0.00	29.906 
04:45	62.0	62.0	62.0	79	55.4	0	0	---	0.00	29.906 
04:50	62.0	62.0	62.0	79	55.4	0	0	---	0.00	29.906 
04:55	62.1	62.1	62.1	78	55.2	0	0	---	0.00	29.906 
05:00	62.3	62.3	62.3	78	55.3	0	0	---	0.00	29.907 
05:05	62.4	62.4	62.4	77	55.1	0	0	---	0.00	29.907 
05:10	62.6	62.6	62.6	77	55.3	0	0	---	0.00	29.907 
05:15	62.7	62.7	62.7	77	55.4	0	0	---	0.00	29.904 
05:20	62.7	62.7	62.7	77	55.4	0	0	---	0.00	29.904 
05:25	62.7	62.7	62.7	77	55.4	0	0	---	0.00	29.904 
05:30	62.7	62.7	62.7	77	55.4	0	0	---	0.00	29.904 
05:35	62.7	62.7	62.7	77	55.4	0	0	---	0.00	29.904 
05:40	62.6	62.6	62.6	77	55.3	0	0	---	0.00	29.904 
05:45	62.6	62.6	62.6	77	55.3	0	1	292	0.00	29.905 
05:50	62.6	62.6	62.6	77	55.3	0	0	---	0.00	29.905 
05:55	62.6	62.6	62.6	77	55.3	0	0	---	0.00	29.905 
06:00	62.6	62.6	62.6	77	55.3	0	0	---	0.00	29.906 
06:05	62.4	62.4	62.4	77	55.1	0	0	---	0.00	29.906 
06:10	62.6	62.6	62.6	77	55.3	0	1	292	0.00	29.906 
06:15	62.6	62.6	62.6	77	55.3	0	1	292	0.00	29.907 
06:20	62.6	62.6	62.6	78	55.6	0	1	292	0.00	29.907 
06:25	62.6	62.6	62.6	78	55.6	0	0	---	0.00	29.907 
06:30	62.6	62.6	62.6	78	55.6	0	0	---	0.00	29.909 
06:35	62.4	62.4	62.4	78	55.4	0	0	---	0.00	29.909 
06:40	62.4	62.4	62.4	79	55.8	0	1	292	0.00	29.909 
06:45	62.4	62.4	62.4	79	55.8	0	1	292	0.00	29.911 
06:50	62.4	62.4	62.4	79	55.8	0	1	292	0.00	29.911 
06:55	62.6	62.6	62.6	79	56.0	0	1	292	0.00	29.911 
07:00	62.6	62.6	62.6	79	56.0	0	1	292	0.00	29.913 
07:05	62.7	62.7	62.7	79	56.1	0	1	292	0.00	29.913 
07:10	62.7	62.7	62.7	79	56.1	0	1	292	0.00	29.913 
07:15	62.7	62.7	62.7	80	56.4	0	0	---	0.00	29.917 
07:20	62.9	62.9	62.9	80	56.6	0	1	292	0.00	29.917 
07:25	63.1	63.1	63.1	80	56.8	0	1	292	0.00	29.917 
07:30	63.2	63.2	63.2	80	56.9	0	1	292	0.00	29.918 
07:35	63.4	63.4	63.4	80	57.1	0	1	292	0.00	29.918 
07:40	63.7	63.7	63.7	79	57.1	0	3	292	0.00	29.918 
07:45	64.2	64.2	64.2	79	57.5	1	2	292	0.00	29.921 
07:50	64.5	64.5	64.5	78	57.5	1	3	292	0.00	29.921 
07:55	64.8	64.8	64.8	77	57.4	1	3	292	0.00	29.921 
08:00	65.2	65.2	65.2	77	57.8	1	3	292	0.00	29.926 
08:05	65.5	65.5	65.5	77	58.1	1	3	292	0.00	29.926 
08:10	65.8	65.8	65.8	76	58.0	1	4	292	0.00	29.926 
08:15	66.3	66.3	66.3	76	58.5	1	3	292	0.00	29.933 
08:20	66.6	66.6	66.6	75	58.4	1	4	292	0.00	29.933 
08:25	66.9	66.9	66.9	75	58.7	2	4	90	0.00	29.933 
08:30	67.1	67.1	67.1	75	58.9	1	3	90	0.00	29.932 
08:35	67.6	67.6	67.6	74	59.0	1	2	90	0.00	29.932 
08:40	68.1	68.1	68.1	73	59.1	1	2	90	0.00	29.932 
08:45	68.4	68.4	68.4	72	59.0	1	4	90	0.00	29.933 
08:50	68.8	68.8	68.8	72	59.4	1	2	90	0.00	29.933 
08:55	69.3	69.3	69.3	71	59.5	1	4	90	0.00	29.933 
09:00	69.6	69.6	69.6	70	59.4	1	3	22	0.00	29.932 
09:05	69.9	69.9	69.9	70	59.7	1	3	270	0.00	29.932 
09:10	70.3	70.3	70.3	69	59.6	1	2	270	0.00	29.932 
09:15	70.6	70.6	70.6	69	59.9	1	2	270	0.00	29.935 
09:20	70.9	70.9	70.9	66	59.0	1	2	270	0.00	29.935 
09:25	71.6	71.6	71.6	68	60.5	0	1	270	0.00	29.935 
09:30	72.0	72.0	72.0	63	58.7	1	4	270	0.00	29.935 
09:35	72.3	72.3	72.3	62	58.5	1	3	270	0.00	29.935 
09:40	72.7	72.7	72.7	62	58.9	1	2	270	0.00	29.935 
09:45	73.0	73.0	73.0	63	59.6	1	4	270	0.00	29.935 
09:50	73.3	73.3	73.3	61	59.0	0	2	270	0.00	29.935 
09:55	73.7	73.7	73.7	60	58.9	1	2	270	0.00	29.935 
10:00	74.0	74.0	74.0	60	59.2	0	2	270	0.00	29.936 
10:05	74.0	74.0	74.0	57	57.8	1	3	270	0.00	29.936 
10:10	74.4	74.4	74.4	56	57.7	1	2	270	0.00	29.936 
10:15	74.4	74.4	74.4	56	57.7	1	4	270	0.00	29.937 
10:20	74.6	74.6	74.6	57	58.3	1	3	270	0.00	29.937 
10:25	74.9	74.9	74.9	57	58.6	1	3	270	0.00	29.937 
10:30	74.9	74.9	74.9	55	57.6	1	4	270	0.00	29.935 
10:35	75.1	75.1	77.5	57	58.8	0	2	270	0.00	29.935 
10:40	75.3	75.3	77.7	55	58.0	1	4	270	0.00	29.935 
10:45	75.6	75.6	77.8	55	58.3	0	2	270	0.00	29.936 
10:50	75.8	75.8	78.0	54	57.9	1	3	270	0.00	29.936 
10:55	75.8	75.8	78.0	53	57.4	1	3	270	0.00	29.936 
11:00	76.1	76.1	78.1	56	59.2	1	3	292	0.00	29.934 
11:05	76.5	76.5	78.4	54	58.6	1	2	292	0.00	29.934 
11:10	76.7	76.7	78.5	52	57.7	2	5	292	0.00	29.934 
11:15	76.7	76.7	78.4	50	56.6	2	5	292	0.00	29.938 
11:20	76.8	76.8	78.5	50	56.7	1	3	292	0.00	29.938 
11:25	77.4	77.4	78.9	51	57.8	1	4	292	0.00	29.938 
11:30	77.7	77.7	78.9	48	56.4	2	5	292	0.00	29.941 
11:35	77.7	77.7	78.9	47	55.8	2	5	292	0.00	29.941 
11:40	77.9	77.9	79.0	46	55.4	2	4	292	0.00	29.941 
11:45	78.3	78.3	79.3	48	57.0	1	3	292	0.00	29.941 
11:50	78.5	78.5	79.3	45	55.4	2	5	292	0.00	29.941 
11:55	78.6	78.6	79.3	44	54.8	2	6	292	0.00	29.941 
12:00	78.6	78.6	79.1	41	52.9	1	4	292	0.00	29.938 
12:05	79.0	79.0	79.5	43	54.6	2	7	338	0.00	29.938 
12:10	79.0	79.0	79.4	42	53.9	2	4	270	0.00	29.938 
12:15	79.0	79.0	79.6	44	55.2	2	6	292	0.00	29.942 
12:20	79.4	79.4	79.7	42	54.3	2	4	270	0.00	29.942 
12:25	79.8	79.8	79.9	41	54.0	2	5	338	0.00	29.942 
12:30	79.4	79.4	79.5	39	52.3	2	4	270	0.00	29.944 
12:35	79.4	79.4	79.6	41	53.6	2	5	270	0.00	29.944 
12:40	79.8	79.8	79.8	40	53.3	3	6	292	0.00	29.944 
12:45	79.8	79.8	79.6	38	51.9	2	6	315	0.00	29.939 
12:50	79.8	79.8	79.7	39	52.6	2	5	292	0.00	29.939 
12:55	80.1	80.1	79.9	39	52.9	2	5	270	0.00	29.939 
13:00	79.9	79.9	79.8	39	52.7	4	7	270	0.00	29.938 
13:05	79.9	79.9	79.7	38	52.0	3	6	292	0.00	29.938 
13:10	79.9	79.9	79.9	40	53.4	2	5	270	0.00	29.938 
13:15	80.5	80.5	80.4	41	54.6	2	5	270	0.00	29.939 
13:20	80.5	80.5	80.2	39	53.2	2	6	315	0.00	29.939 
13:25	80.5	80.5	80.1	38	52.5	3	6	270	0.00	29.939 
13:30	80.3	80.3	80.0	38	52.4	4	9	270	0.00	29.937 
13:35	80.3	80.3	80.3	42	55.1	3	9	270	0.00	29.937 
13:40	80.5	80.5	80.2	39	53.2	2	6	292	0.00	29.937 
13:45	80.7	80.7	80.2	38	52.7	3	6	292	0.00	29.933 
13:50	80.7	80.7	80.2	38	52.7	3	7	270	0.00	29.933 
13:55	80.3	80.3	79.8	36	50.9	3	8	270	0.00	29.933 
14:00	80.5	80.5	80.2	39	53.2	3	6	270	0.00	29.933 
14:05	80.7	80.7	80.3	39	53.4	2	5	315	0.00	29.933 
14:10	80.7	80.7	80.1	36	51.2	3	7	292	0.00	29.933 
14:15	80.7	80.7	80.3	39	53.4	2	5	270	0.00	29.929 
14:20	81.1	81.1	80.6	39	53.8	2	6	292	0.00	29.929 
14:25	81.4	81.4	80.9	39	54.0	2	6	292	0.00	29.929 
14:30	81.2	81.2	80.4	36	51.7	3	7	270	0.00	29.925 
14:35	81.4	81.4	80.8	38	53.3	2	5	338	0.00	29.925 
14:40	81.8	81.8	81.1	38	53.7	1	4	270	0.00	29.925 
14:45	81.8	81.8	80.9	36	52.2	2	5	270	0.00	29.922 
14:50	81.4	81.4	80.6	36	51.9	3	6	270	0.00	29.922 
14:55	81.6	81.6	80.7	36	52.0	2	5	292	0.00	29.922 
15:00	81.8	81.8	81.2	39	54.4	2	6	270	0.00	29.916 
15:05	81.8	81.8	80.8	35	51.4	3	7	270	0.00	29.916 
15:10	81.6	81.6	80.8	37	52.8	2	5	292	0.00	29.916 
15:15	81.2	81.2	80.4	36	51.7	3	9	292	0.00	29.915 
15:20	81.6	81.6	80.8	37	52.8	2	5	292	0.00	29.915 
15:25	82.2	82.2	81.4	38	54.0	2	5	270	0.00	29.915 
15:30	82.4	82.4	81.3	36	52.7	1	4	270	0.00	29.909 
15:35	81.8	81.8	80.9	36	52.2	2	4	270	0.00	29.909 
15:40	81.4	81.4	80.7	37	52.6	2	4	270	0.00	29.909 
15:45	81.4	81.4	80.6	36	51.9	2	5	292	0.00	29.908 
15:50	80.9	80.9	80.2	36	51.4	1	4	292	0.00	29.908 
15:55	81.4	81.4	80.7	37	52.6	2	6	270	0.00	29.908 
16:00	81.4	81.4	80.6	36	51.9	2	6	292	0.00	29.908 
16:05	81.4	81.4	80.6	36	51.9	1	4	338	0.00	29.908 
16:10	81.8	81.8	80.8	35	51.4	2	5	338	0.00	29.908 
16:15	82.0	82.0	80.9	35	51.6	2	7	292	0.00	29.905 
16:20	82.4	82.4	81.1	34	51.2	2	5	292	0.00	29.905 
16:25	82.8	82.8	81.6	35	52.3	2	4	292	0.00	29.905 
16:30	82.6	82.6	81.4	35	52.1	2	6	270	0.00	29.903 
16:35	82.2	82.2	81.1	35	51.8	1	4	270	0.00	29.903 
16:40	81.6	81.6	80.7	36	52.0	1	3	270	0.00	29.903 
16:45	81.1	81.1	80.4	36	51.6	3	5	270	0.00	29.906 
16:50	80.5	80.5	79.9	36	51.1	2	6	270	0.00	29.906 
16:55	80.5	80.5	80.0	37	51.8	1	5	270	0.00	29.906 
17:00	80.7	80.7	80.2	38	52.7	2	6	270	0.00	29.901 
17:05	81.2	81.2	80.5	37	52.4	2	5	270	0.00	29.901 
17:10	81.8	81.8	80.8	35	51.4	2	5	315	0.00	29.901 
17:15	82.2	82.2	81.1	35	51.8	3	6	270	0.00	29.896 
17:20	82.4	82.4	81.2	35	52.0	2	4	292	0.00	29.896 
17:25	82.2	82.2	80.9	33	50.2	3	7	292	0.00	29.896 
17:30	81.4	81.4	80.4	34	50.3	3	6	270	0.00	29.894 
17:35	80.9	80.9	80.2	36	51.4	2	4	270	0.00	29.894 
17:40	80.5	80.5	80.0	37	51.8	2	4	315	0.00	29.894 
17:45	80.3	80.3	79.8	36	50.9	2	5	315	0.00	29.896 
17:50	80.1	80.1	79.8	37	51.5	2	3	270	0.00	29.896 
17:55	79.9	79.9	79.6	37	51.3	2	4	270	0.00	29.896 
18:00	79.8	79.8	79.5	36	50.4	2	5	270	0.00	29.898 
18:05	79.6	79.6	79.5	38	51.7	2	3	292	0.00	29.898 
18:10	79.8	79.8	79.8	40	53.3	1	3	292	0.00	29.898 
18:15	79.8	79.8	79.7	39	52.6	1	3	292	0.00	29.898 
18:20	79.9	79.9	79.8	39	52.7	1	3	292	0.00	29.898 
18:25	79.9	79.9	79.8	39	52.7	1	4	315	0.00	29.898 
18:30	79.9	79.9	79.8	39	52.7	1	4	292	0.00	29.898 
18:35	79.8	79.8	79.6	38	51.9	1	2	292	0.00	29.898 
18:40	79.6	79.6	79.7	40	53.1	1	2	292	0.00	29.898 
18:45	79.4	79.4	79.5	40	52.9	1	3	292	0.00	29.893 
18:50	79.4	79.4	79.6	41	53.6	0	1	292	0.00	29.893 
18:55	79.2	79.2	79.3	39	52.1	1	3	292	0.00	29.893 
19:00	79.2	79.2	79.5	41	53.4	0	1	292	0.00	29.891 
19:05	79.0	79.0	79.4	42	53.9	0	1	292	0.00	29.891 
19:10	79.0	79.0	79.4	41	53.3	0	2	292	0.00	29.891 
19:15	79.4	79.4	79.7	42	54.3	0	2	292	0.00	29.887 
19:20	79.6	79.6	79.8	42	54.5	0	1	292	0.00	29.887 
19:25	79.6	79.6	79.7	41	53.8	0	1	292	0.00	29.887 
19:30	79.6	79.6	79.7	41	53.8	0	1	292	0.00	29.884 
19:35	79.6	79.6	79.8	42	54.5	0	1	292	0.00	29.884 
19:40	79.4	79.4	79.6	41	53.6	0	1	292	0.00	29.884 
19:45	79.4	79.4	79.7	42	54.3	0	0	---	0.00	29.877 
19:50	79.2	79.2	79.6	43	54.7	0	0	---	0.00	29.877 
19:55	79.0	79.0	79.4	42	53.9	0	0	---	0.00	29.877 
20:00	78.6	78.6	79.2	42	53.6	0	0	---	0.00	29.878 
20:05	78.3	78.3	79.1	43	53.9	0	0	---	0.00	29.878 
20:10	77.9	77.9	78.8	43	53.6	0	0	---	0.00	29.878 
20:15	77.6	77.6	78.7	44	53.9	0	0	---	0.00	29.880 
20:20	77.4	77.4	78.6	45	54.4	0	0	---	0.00	29.880 
20:25	77.0	77.0	78.5	46	54.6	0	0	---	0.00	29.880 
20:30	76.8	76.8	78.4	46	54.4	0	0	---	0.00	29.879 
20:35	76.5	76.5	78.2	46	54.2	0	0	---	0.00	29.879 
20:40	76.3	76.3	78.2	47	54.6	0	0	---	0.00	29.879 
20:45	76.0	76.0	78.0	48	54.9	0	0	---	0.00	29.874 
20:50	75.8	75.8	78.0	50	55.8	0	0	---	0.00	29.874 
20:55	75.4	75.4	77.8	51	56.0	0	0	---	0.00	29.874 
21:00	74.9	74.9	74.9	51	55.5	0	0	---	0.00	29.876 
21:05	74.6	74.6	74.6	52	55.8	0	0	---	0.00	29.876 
21:10	74.2	74.2	74.2	53	56.0	0	0	---	0.00	29.876 
21:15	73.9	73.9	73.9	53	55.7	0	0	---	0.00	29.874 
21:20	73.5	73.5	73.5	54	55.8	0	0	---	0.00	29.874 
21:25	73.2	73.2	73.2	56	56.5	0	0	---	0.00	29.874 
21:30	72.8	72.8	72.8	57	56.7	0	0	---	0.00	29.881 
21:35	72.7	72.7	72.7	58	57.1	0	0	---	0.00	29.881 
21:40	72.3	72.3	72.3	58	56.7	0	0	---	0.00	29.881 
21:45	72.1	72.1	72.1	59	57.0	0	0	---	0.00	29.881 
21:50	71.8	71.8	71.8	60	57.2	0	0	---	0.00	29.881 
21:55	71.8	71.8	71.8	60	57.2	0	0	---	0.00	29.881 
22:00	71.8	71.8	71.8	60	57.2	0	0	---	0.00	29.879 
22:05	71.8	71.8	71.8	60	57.2	0	0	---	0.00	29.879 
22:10	71.6	71.6	71.6	61	57.4	0	0	---	0.00	29.879 
22:15	71.6	71.6	71.6	61	57.4	0	0	---	0.00	29.877 
22:20	71.6	71.6	71.6	61	57.4	0	0	---	0.00	29.877 
22:25	71.6	71.6	71.6	61	57.4	0	0	---	0.00	29.877 
22:30	71.8	71.8	71.8	62	58.1	0	0	---	0.00	29.875 
22:35	72.0	72.0	72.0	61	57.8	0	0	---	0.00	29.875 
22:40	72.1	72.1	72.1	61	57.9	0	1	292	0.00	29.875 
22:45	72.5	72.5	72.5	61	58.3	0	1	292	0.00	29.884 
22:50	72.7	72.7	72.7	61	58.5	0	0	---	0.00	29.884 
22:55	73.0	73.0	73.0	61	58.7	0	1	292	0.00	29.884 
23:00	73.3	73.3	73.3	60	58.6	0	1	225	0.00	29.880 
23:05	73.5	73.5	73.5	60	58.7	0	1	225	0.00	29.880 
23:10	73.7	73.7	73.7	60	58.9	0	1	225	0.00	29.880 
23:15	73.9	73.9	73.9	60	59.1	0	1	225	0.00	29.876 
23:20	73.9	73.9	73.9	60	59.1	0	1	292	0.00	29.876 
23:25	73.7	73.7	73.7	60	58.9	0	1	292	0.00	29.876 
23:30	73.7	73.7	73.7	60	58.9	0	1	292	0.00	29.872 
23:35	73.7	73.7	73.7	61	59.4	0	1	292	0.00	29.872 
23:40	73.9	73.9	73.9	60	59.1	0	1	292	0.00	29.872 
23:45	73.9	73.9	73.9	61	59.6	0	1	292	0.00	29.869 
23:50	73.9	73.9	73.9	61	59.6	0	2	292	0.00	29.869 
23:55	73.9	73.9	73.9	61	59.6	0	1	292	0.00	29.869 

CoCoRaHS
IN-AL-39
A2 Web Hosting
Creative Commons License
GoDaddy
search engine by freefind advanced

loaded 2018-11-19 19:32:05 • last modified 2010-11-18 10:43:29
Privacy PolicyDisclaimer
• wx.awcolley.com is powered by PmWiki v.2002016 •
• all content (unless otherwise noted) © 2018 A W Colley